createdAt,value
2023-05-09T00:00:29.901Z,75.98
2023-05-09T00:02:56.616Z,75.82
2023-05-09T00:05:23.351Z,76.13
2023-05-09T00:07:49.957Z,76.21
2023-05-09T00:10:16.660Z,76.21
2023-05-09T00:12:43.803Z,76.44
2023-05-09T00:15:10.872Z,76.59
2023-05-09T00:17:38.715Z,76.21
2023-05-09T00:20:12.386Z,76.88
2023-05-09T00:22:41.047Z,76.26
2023-05-09T00:25:08.969Z,76.47
2023-05-09T00:27:35.843Z,76.49
2023-05-09T00:30:04.187Z,76.69
2023-05-09T00:32:30.940Z,77.28
2023-05-09T00:34:58.288Z,76.92
2023-05-09T00:37:24.842Z,77.56
2023-05-09T00:39:51.335Z,77.54
2023-05-09T00:42:17.906Z,77.57
2023-05-09T00:44:44.490Z,77.67
2023-05-09T00:47:11.097Z,77.48
2023-05-09T00:49:38.250Z,78.15
2023-05-09T00:52:05.546Z,77.78
2023-05-09T00:54:32.329Z,77.98
2023-05-09T00:56:58.885Z,78.34
2023-05-09T00:59:25.469Z,78.19
2023-05-09T01:01:52.124Z,78.37
2023-05-09T01:04:18.852Z,78.37
2023-05-09T01:06:51.406Z,78.34
2023-05-09T01:09:26.625Z,78.27
2023-05-09T01:12:07.284Z,78.71
2023-05-09T01:14:38.808Z,78.95
2023-05-09T01:17:25.787Z,79.27
2023-05-09T01:20:00.231Z,79.42
2023-05-09T01:22:34.950Z,79.20
2023-05-09T01:25:39.004Z,79.31
2023-05-09T01:28:55.674Z,79.65
2023-05-09T01:31:23.163Z,79.33
2023-05-09T01:33:56.710Z,79.48
2023-05-09T01:36:26.103Z,79.59
2023-05-09T01:38:52.791Z,79.09
2023-05-09T01:41:22.520Z,79.49
2023-05-09T01:43:51.188Z,79.44
2023-05-09T01:46:19.473Z,79.54
2023-05-09T01:48:46.761Z,79.98
2023-05-09T01:51:15.079Z,80.13
2023-05-09T01:53:43.401Z,79.50
2023-05-09T01:56:11.484Z,80.00
2023-05-09T01:58:39.364Z,79.63
2023-05-09T02:01:06.279Z,79.57
2023-05-09T02:03:34.325Z,79.80
2023-05-09T02:06:03.887Z,79.48
2023-05-09T02:08:31.485Z,79.81
2023-05-09T02:10:58.147Z,79.73
2023-05-09T02:13:25.047Z,79.82
2023-05-09T02:15:52.354Z,79.43
2023-05-09T02:18:18.860Z,79.39
2023-05-09T02:20:45.865Z,78.88
2023-05-09T02:23:12.593Z,79.51
2023-05-09T02:25:40.732Z,79.24
2023-05-09T02:28:10.018Z,79.05
2023-05-09T02:30:41.992Z,79.37
2023-05-09T02:33:10.112Z,79.30
2023-05-09T02:35:37.399Z,79.17
2023-05-09T02:38:05.483Z,79.31
2023-05-09T02:40:33.620Z,79.47
2023-05-09T02:43:00.122Z,78.99
2023-05-09T02:45:26.816Z,79.60
2023-05-09T02:47:53.410Z,79.88
2023-05-09T02:50:20.115Z,79.70
2023-05-09T02:52:46.670Z,79.49
2023-05-09T02:55:13.446Z,79.57
2023-05-09T02:57:40.284Z,79.42
2023-05-09T03:00:10.498Z,79.72
2023-05-09T03:02:38.627Z,79.90
2023-05-09T03:05:05.875Z,79.97
2023-05-09T03:07:32.401Z,80.30
2023-05-09T03:09:58.968Z,80.03
2023-05-09T03:12:25.507Z,80.13
2023-05-09T03:14:52.018Z,80.09
2023-05-09T03:17:21.363Z,80.39
2023-05-09T03:19:48.634Z,80.34
2023-05-09T03:22:15.683Z,80.50
2023-05-09T03:24:42.319Z,80.51
2023-05-09T03:27:08.885Z,80.34
2023-05-09T03:29:35.469Z,80.52
2023-05-09T03:32:02.017Z,80.59
2023-05-09T03:34:28.526Z,80.83
2023-05-09T03:36:55.087Z,80.80
2023-05-09T03:39:21.668Z,81.10
2023-05-09T03:41:48.877Z,81.18
2023-05-09T03:44:15.960Z,81.18
2023-05-09T03:46:42.565Z,80.89
2023-05-09T03:49:09.195Z,81.09
2023-05-09T03:51:35.838Z,81.27
2023-05-09T03:54:02.367Z,81.54
2023-05-09T03:56:28.953Z,81.45
2023-05-09T03:58:55.499Z,81.36
2023-05-09T04:01:22.147Z,81.00
2023-05-09T04:03:48.826Z,81.43
2023-05-09T04:06:15.588Z,81.26
2023-05-09T04:08:42.517Z,81.47
2023-05-09T04:11:09.099Z,81.26
2023-05-09T04:13:35.640Z,81.35
2023-05-09T04:16:02.587Z,81.17
2023-05-09T04:18:29.115Z,81.52
2023-05-09T04:20:55.653Z,81.37
2023-05-09T04:23:22.188Z,81.40
2023-05-09T04:25:51.324Z,81.37
2023-05-09T04:28:18.028Z,81.20
2023-05-09T04:30:44.585Z,81.13
2023-05-09T04:33:11.247Z,81.38
2023-05-09T04:35:38.483Z,81.38
2023-05-09T04:38:05.030Z,81.33
2023-05-09T04:40:31.665Z,81.39
2023-05-09T04:42:59.038Z,81.48
2023-05-09T04:45:26.095Z,81.68
2023-05-09T04:47:52.675Z,81.40
2023-05-09T04:50:19.328Z,81.65
2023-05-09T04:52:46.118Z,81.72
2023-05-09T04:55:12.826Z,81.24
2023-05-09T04:57:39.950Z,80.33
2023-05-09T05:00:07.950Z,79.31
2023-05-09T05:02:34.578Z,77.98
2023-05-09T05:05:17.980Z,76.73
2023-05-09T05:07:47.640Z,76.46
2023-05-09T05:10:14.217Z,75.67
2023-05-09T05:12:40.921Z,74.70
2023-05-09T05:15:07.955Z,74.08
2023-05-09T05:17:34.602Z,73.58
2023-05-09T05:20:01.341Z,72.24
2023-05-09T05:22:27.865Z,71.53
2023-05-09T05:24:54.531Z,71.44
2023-05-09T05:27:21.181Z,70.64
2023-05-09T05:29:47.675Z,70.56
2023-05-09T05:32:14.176Z,70.72
2023-05-09T05:34:40.918Z,69.93
2023-05-09T05:37:07.673Z,70.05
2023-05-09T05:39:34.185Z,69.92
2023-05-09T05:42:00.757Z,70.06
2023-05-09T05:44:27.286Z,69.86
2023-05-09T05:46:53.855Z,70.06
2023-05-09T05:49:20.450Z,70.79
2023-05-09T05:51:47.047Z,70.45
2023-05-09T05:54:13.571Z,70.52
2023-05-09T05:56:40.149Z,70.44
2023-05-09T05:59:06.675Z,70.31
2023-05-09T06:01:33.247Z,69.81
2023-05-09T06:03:59.956Z,69.71
2023-05-09T06:06:27.347Z,69.65
2023-05-09T06:08:54.011Z,69.75
2023-05-09T06:11:21.225Z,69.47
2023-05-09T06:13:47.752Z,68.92
2023-05-09T06:16:19.688Z,68.53
2023-05-09T06:18:47.324Z,68.22
2023-05-09T06:21:13.835Z,67.45
2023-05-09T06:23:47.262Z,66.95
2023-05-09T06:26:24.040Z,67.04
2023-05-09T06:28:50.657Z,66.89
2023-05-09T06:31:17.338Z,66.86
2023-05-09T06:33:43.997Z,67.14
2023-05-09T06:36:10.695Z,66.67
2023-05-09T06:38:37.242Z,66.29
2023-05-09T06:41:03.832Z,66.23
2023-05-09T06:43:30.546Z,66.10
2023-05-09T06:45:57.196Z,65.93
2023-05-09T06:48:26.889Z,65.96
2023-05-09T06:50:53.694Z,65.39
2023-05-09T06:53:20.240Z,65.16
2023-05-09T06:55:47.749Z,64.77
2023-05-09T06:58:14.831Z,65.09
2023-05-09T07:00:41.378Z,64.87
2023-05-09T07:03:08.001Z,64.80
2023-05-09T07:05:34.813Z,65.04
2023-05-09T07:08:01.456Z,64.00
2023-05-09T07:10:28.158Z,64.09
2023-05-09T07:12:54.828Z,64.18
2023-05-09T07:15:36.866Z,65.89
2023-05-09T07:18:07.033Z,66.11
2023-05-09T07:20:33.762Z,65.45
2023-05-09T07:23:00.448Z,65.73
2023-05-09T07:25:27.106Z,65.27
2023-05-09T07:27:53.615Z,65.31
2023-05-09T07:30:20.196Z,64.97
2023-05-09T07:32:47.054Z,63.82
2023-05-09T07:35:13.898Z,64.53
2023-05-09T07:37:40.932Z,64.18
2023-05-09T07:40:08.158Z,63.51
2023-05-09T07:42:34.709Z,63.48
2023-05-09T07:45:01.400Z,63.31
2023-05-09T07:47:28.012Z,62.96
2023-05-09T07:49:54.570Z,63.14
2023-05-09T07:52:21.197Z,62.87
2023-05-09T07:54:47.776Z,62.94
2023-05-09T07:57:14.850Z,63.62
2023-05-09T07:59:42.409Z,64.71
2023-05-09T08:02:09.117Z,63.86
2023-05-09T08:04:38.287Z,63.96
2023-05-09T08:07:05.188Z,63.78
2023-05-09T08:09:31.878Z,63.54
2023-05-09T08:11:58.530Z,63.85
2023-05-09T08:14:25.352Z,63.79
2023-05-09T08:16:51.921Z,64.35
2023-05-09T08:19:18.450Z,64.22
2023-05-09T08:21:45.009Z,63.82
2023-05-09T08:24:11.521Z,63.92
2023-05-09T08:26:38.109Z,62.84
2023-05-09T08:29:04.666Z,62.89
2023-05-09T08:31:31.262Z,62.56
2023-05-09T08:33:57.811Z,63.06
2023-05-09T08:36:24.385Z,63.08
2023-05-09T08:38:50.946Z,62.97
2023-05-09T08:41:18.062Z,62.69
2023-05-09T08:43:45.624Z,62.40
2023-05-09T08:46:14.397Z,63.10
2023-05-09T08:48:43.166Z,63.04
2023-05-09T08:51:11.978Z,63.72
2023-05-09T08:53:39.014Z,64.12
2023-05-09T08:56:06.141Z,65.03
2023-05-09T08:58:34.258Z,64.26
2023-05-09T09:01:04.678Z,64.10
2023-05-09T09:03:32.087Z,65.51
2023-05-09T09:05:58.982Z,65.36
2023-05-09T09:08:27.547Z,66.74
2023-05-09T09:10:54.340Z,66.88
2023-05-09T09:13:21.978Z,67.46
2023-05-09T09:15:49.596Z,67.20
2023-05-09T09:18:23.561Z,67.15
2023-05-09T09:20:53.146Z,67.22
2023-05-09T09:23:24.435Z,67.60
2023-05-09T09:25:59.728Z,67.36
2023-05-09T09:28:27.089Z,68.39
2023-05-09T09:30:53.926Z,68.83
2023-05-09T09:33:22.090Z,68.26
2023-05-09T09:35:53.661Z,68.99
2023-05-09T09:38:24.718Z,69.64
2023-05-09T09:40:56.152Z,68.93
2023-05-09T09:43:29.848Z,69.33
2023-05-09T09:45:57.839Z,70.85
2023-05-09T09:48:26.042Z,71.29
2023-05-09T09:50:55.489Z,70.83
2023-05-09T09:53:22.101Z,69.77
2023-05-09T09:55:52.233Z,70.26
2023-05-09T09:58:21.971Z,70.57
2023-05-09T10:01:06.327Z,70.50
2023-05-09T10:03:46.445Z,69.21
2023-05-09T10:06:16.048Z,68.61
2023-05-09T10:08:49.173Z,67.50
2023-05-09T10:11:16.542Z,68.19
2023-05-09T10:13:44.475Z,68.20
2023-05-09T10:16:11.656Z,66.95
2023-05-09T10:18:41.198Z,67.41
2023-05-09T10:21:11.832Z,67.01
2023-05-09T10:23:42.821Z,67.44
2023-05-09T10:26:23.024Z,68.31
2023-05-09T10:28:54.864Z,67.69
2023-05-09T10:31:24.375Z,67.73
2023-05-09T10:33:51.332Z,67.58
2023-05-09T10:36:22.174Z,67.57
2023-05-09T10:38:49.857Z,67.72
2023-05-09T10:41:18.774Z,67.16
2023-05-09T10:43:46.043Z,67.37
2023-05-09T10:46:13.611Z,67.12
2023-05-09T10:48:41.865Z,66.39
2023-05-09T10:51:09.548Z,64.37
2023-05-09T10:53:50.304Z,64.18
2023-05-09T10:56:26.522Z,65.56
2023-05-09T10:58:54.661Z,65.80
2023-05-09T11:01:39.747Z,65.19
2023-05-09T11:04:11.658Z,64.39
2023-05-09T11:06:45.200Z,64.55
2023-05-09T11:09:35.496Z,64.32
2023-05-09T11:12:04.930Z,65.09
2023-05-09T11:14:41.437Z,64.49
2023-05-09T11:17:23.089Z,65.03
2023-05-09T11:19:49.854Z,65.26
2023-05-09T11:22:17.446Z,65.48
2023-05-09T11:24:51.216Z,65.30
2023-05-09T11:27:23.051Z,64.94
2023-05-09T11:29:54.148Z,65.05
2023-05-09T11:32:22.794Z,65.54
2023-05-09T11:34:49.832Z,65.54
2023-05-09T11:37:20.865Z,64.95
2023-05-09T11:39:58.733Z,64.73
2023-05-09T11:42:28.692Z,64.69
2023-05-09T11:44:56.847Z,64.84
2023-05-09T11:47:23.882Z,65.05
2023-05-09T11:49:50.721Z,65.93
2023-05-09T11:52:19.259Z,65.87
2023-05-09T11:54:45.768Z,66.50
2023-05-09T11:57:17.276Z,67.01
2023-05-09T11:59:45.487Z,67.46
2023-05-09T12:02:12.935Z,67.43
2023-05-09T12:04:39.659Z,67.99
2023-05-09T12:07:06.362Z,67.77
2023-05-09T12:09:34.772Z,68.00
2023-05-09T12:12:01.500Z,68.37
2023-05-09T12:14:33.280Z,68.35
2023-05-09T12:17:00.188Z,68.77
2023-05-09T12:19:27.238Z,68.98
2023-05-09T12:22:01.934Z,69.15
2023-05-09T12:24:30.022Z,69.56
2023-05-09T12:26:58.527Z,69.46
2023-05-09T12:29:26.081Z,69.41
2023-05-09T12:31:53.950Z,68.99
2023-05-09T12:34:21.241Z,68.85
2023-05-09T12:36:51.749Z,68.92
2023-05-09T12:39:19.492Z,68.94
2023-05-09T12:41:53.874Z,68.76
2023-05-09T12:44:29.642Z,68.82
2023-05-09T12:47:01.723Z,68.50
2023-05-09T12:49:29.643Z,68.71
2023-05-09T12:52:02.995Z,69.53
2023-05-09T12:54:31.200Z,70.52
2023-05-09T12:57:02.080Z,70.00
2023-05-09T12:59:30.288Z,71.26
2023-05-09T13:01:59.381Z,71.29
2023-05-09T13:04:28.104Z,71.46
2023-05-09T13:06:57.706Z,72.18
2023-05-09T13:09:27.916Z,72.96
2023-05-09T13:11:54.563Z,73.49
2023-05-09T13:14:23.314Z,73.23
2023-05-09T13:16:50.006Z,73.89
2023-05-09T13:19:16.660Z,73.48
2023-05-09T13:21:43.373Z,73.99
2023-05-09T13:24:09.975Z,74.40
2023-05-09T13:26:36.613Z,74.21
2023-05-09T13:29:03.272Z,74.34
2023-05-09T13:31:30.592Z,74.94
2023-05-09T13:33:57.297Z,74.97
2023-05-09T13:36:23.920Z,75.25
2023-05-09T13:38:50.465Z,76.29
2023-05-09T13:41:20.934Z,76.29
2023-05-09T13:43:47.935Z,76.66
2023-05-09T13:46:14.565Z,77.27
2023-05-09T13:48:41.895Z,77.80
2023-05-09T13:51:08.776Z,77.94
2023-05-09T13:53:38.123Z,78.29
2023-05-09T13:56:12.070Z,78.42
2023-05-09T13:58:38.620Z,77.94
2023-05-09T14:01:05.429Z,78.15
2023-05-09T14:03:32.198Z,78.11
2023-05-09T14:05:58.907Z,78.37
2023-05-09T14:08:25.555Z,77.68
2023-05-09T14:10:52.043Z,78.80
2023-05-09T14:13:18.677Z,78.05
2023-05-09T14:15:45.346Z,76.69
2023-05-09T14:18:15.504Z,76.65
2023-05-09T14:20:44.422Z,78.43
2023-05-09T14:23:11.002Z,78.66
2023-05-09T14:25:37.985Z,79.01
2023-05-09T14:28:06.904Z,79.21
2023-05-09T14:30:34.258Z,79.31
2023-05-09T14:33:00.968Z,79.65
2023-05-09T14:35:27.666Z,79.48
2023-05-09T14:37:54.332Z,80.12
2023-05-09T14:40:21.116Z,80.44
2023-05-09T14:42:48.455Z,81.57
2023-05-09T14:45:15.489Z,82.09
2023-05-09T14:47:42.076Z,82.43
2023-05-09T14:50:11.425Z,81.84
2023-05-09T14:52:38.001Z,82.52
2023-05-09T14:55:06.223Z,82.89
2023-05-09T14:57:33.372Z,82.68
2023-05-09T15:00:12.508Z,82.40
2023-05-09T15:02:43.707Z,82.54
2023-05-09T15:05:11.731Z,81.91
2023-05-09T15:07:38.750Z,82.73
2023-05-09T15:10:05.972Z,82.00
2023-05-09T15:12:32.694Z,81.77
2023-05-09T15:15:13.016Z,82.03
2023-05-09T15:17:39.581Z,82.68
2023-05-09T15:20:07.250Z,82.47
2023-05-09T15:22:34.633Z,83.00
2023-05-09T15:25:02.004Z,82.79
2023-05-09T15:27:29.546Z,82.33
2023-05-09T15:29:56.286Z,82.14
2023-05-09T15:32:22.962Z,82.50
2023-05-09T15:34:49.685Z,82.53
2023-05-09T15:37:16.286Z,82.84
2023-05-09T15:39:43.691Z,82.82
2023-05-09T15:42:12.273Z,82.47
2023-05-09T15:44:42.819Z,82.43
2023-05-09T15:47:09.971Z,82.09
2023-05-09T15:49:36.561Z,82.16
2023-05-09T15:52:04.522Z,81.84
2023-05-09T15:54:31.838Z,82.05
2023-05-09T15:56:59.409Z,82.36
2023-05-09T15:59:26.529Z,82.41
2023-05-09T16:01:53.850Z,82.09
2023-05-09T16:04:20.762Z,82.16
2023-05-09T16:06:48.067Z,82.04
2023-05-09T16:09:15.416Z,82.15
2023-05-09T16:11:42.411Z,81.92
2023-05-09T16:14:12.951Z,82.10
2023-05-09T16:16:40.643Z,81.89
2023-05-09T16:19:07.282Z,82.27
2023-05-09T16:21:33.910Z,82.53
2023-05-09T16:24:02.933Z,82.88
2023-05-09T16:26:29.542Z,82.89
2023-05-09T16:28:56.404Z,82.19
2023-05-09T16:31:26.579Z,81.74
2023-05-09T16:33:54.397Z,82.45
2023-05-09T16:36:22.212Z,82.44
2023-05-09T16:38:48.798Z,82.19
2023-05-09T16:41:16.038Z,82.87
2023-05-09T16:43:42.786Z,82.45
2023-05-09T16:46:09.581Z,82.34
2023-05-09T16:48:36.200Z,82.30
2023-05-09T16:51:03.314Z,82.04
2023-05-09T16:53:29.945Z,82.49
2023-05-09T16:55:56.930Z,82.81
2023-05-09T16:58:23.767Z,82.46
2023-05-09T17:00:50.988Z,82.66
2023-05-09T17:03:17.628Z,82.37
2023-05-09T17:05:44.264Z,82.22
2023-05-09T17:08:11.441Z,82.79
2023-05-09T17:10:39.485Z,82.63
2023-05-09T17:13:08.823Z,82.67
2023-05-09T17:15:35.687Z,82.78
2023-05-09T17:18:03.097Z,82.38
2023-05-09T17:20:30.001Z,82.34
2023-05-09T17:22:57.358Z,81.90
2023-05-09T17:25:24.100Z,82.25
2023-05-09T17:27:50.711Z,82.58
2023-05-09T17:30:18.723Z,82.11
2023-05-09T17:32:47.035Z,82.30
2023-05-09T17:35:13.961Z,82.42
2023-05-09T17:37:40.954Z,82.35
2023-05-09T17:40:08.136Z,82.34
2023-05-09T17:42:34.800Z,82.99
2023-05-09T17:45:01.316Z,82.54
2023-05-09T17:47:28.853Z,82.56
2023-05-09T17:49:55.472Z,82.55
2023-05-09T17:52:22.141Z,82.89
2023-05-09T17:54:48.817Z,82.87
2023-05-09T17:57:15.325Z,82.66
2023-05-09T17:59:42.034Z,82.93
2023-05-09T18:02:08.738Z,82.78
2023-05-09T18:04:35.564Z,82.76
2023-05-09T18:07:02.677Z,83.13
2023-05-09T18:09:29.443Z,83.06
2023-05-09T18:11:56.069Z,83.03
2023-05-09T18:14:22.677Z,83.08
2023-05-09T18:16:49.252Z,83.17
2023-05-09T18:19:15.783Z,83.03
2023-05-09T18:21:42.448Z,82.68
2023-05-09T18:24:09.306Z,83.23
2023-05-09T18:26:36.068Z,83.38
2023-05-09T18:29:02.736Z,83.10
2023-05-09T18:31:31.318Z,83.07
2023-05-09T18:33:57.938Z,83.40
2023-05-09T18:36:24.514Z,83.48
2023-05-09T18:38:51.083Z,83.55
2023-05-09T18:41:17.673Z,83.49
2023-05-09T18:43:47.086Z,83.63
2023-05-09T18:46:17.527Z,84.00
2023-05-09T18:48:45.430Z,83.81
2023-05-09T18:51:12.229Z,83.74
2023-05-09T18:53:38.885Z,83.98
2023-05-09T18:56:05.465Z,84.32
2023-05-09T18:58:32.444Z,84.67
2023-05-09T19:00:59.176Z,84.59
2023-05-09T19:03:27.166Z,84.71
2023-05-09T19:05:54.176Z,84.60
2023-05-09T19:08:20.887Z,84.59
2023-05-09T19:10:47.615Z,84.66
2023-05-09T19:13:16.308Z,84.57
2023-05-09T19:15:43.275Z,84.52
2023-05-09T19:18:09.988Z,84.61
2023-05-09T19:20:46.050Z,85.02
2023-05-09T19:23:12.560Z,84.94
2023-05-09T19:25:39.098Z,85.28
2023-05-09T19:28:06.350Z,85.38
2023-05-09T19:30:33.444Z,84.91
2023-05-09T19:33:00.114Z,85.16
2023-05-09T19:35:26.836Z,85.02
2023-05-09T19:37:53.373Z,85.28
2023-05-09T19:40:20.052Z,85.55
2023-05-09T19:42:46.573Z,85.04
2023-05-09T19:45:13.167Z,85.41
2023-05-09T19:47:39.798Z,85.76
2023-05-09T19:50:07.043Z,85.72
2023-05-09T19:52:36.294Z,85.80
2023-05-09T19:55:03.821Z,85.71
2023-05-09T19:57:30.311Z,85.95
2023-05-09T19:59:57.832Z,85.64
2023-05-09T20:02:24.582Z,86.26
2023-05-09T20:04:51.248Z,86.27
2023-05-09T20:07:18.229Z,86.24
2023-05-09T20:09:44.790Z,86.69
2023-05-09T20:12:11.538Z,86.80
2023-05-09T20:14:38.152Z,86.68
2023-05-09T20:17:05.412Z,86.77
2023-05-09T20:19:33.171Z,86.64
2023-05-09T20:22:01.120Z,86.84
2023-05-09T20:24:27.931Z,86.46
2023-05-09T20:26:57.258Z,86.46
2023-05-09T20:29:25.173Z,87.10
2023-05-09T20:31:51.849Z,87.22
2023-05-09T20:34:20.888Z,86.65
2023-05-09T20:36:51.376Z,87.09
2023-05-09T20:39:18.692Z,86.96
2023-05-09T20:41:46.090Z,86.83
2023-05-09T20:44:14.140Z,87.34
2023-05-09T20:46:40.845Z,86.95
2023-05-09T20:49:07.767Z,87.06
2023-05-09T20:51:34.322Z,87.07
2023-05-09T20:54:00.942Z,86.91
2023-05-09T20:56:28.704Z,87.29
2023-05-09T20:58:56.152Z,87.53
2023-05-09T21:01:22.825Z,87.36
2023-05-09T21:03:49.371Z,87.24
2023-05-09T21:06:15.817Z,87.05
2023-05-09T21:08:42.376Z,87.56
2023-05-09T21:11:09.210Z,87.05
2023-05-09T21:13:37.166Z,87.24
2023-05-09T21:16:03.786Z,87.15
2023-05-09T21:18:30.350Z,87.56
2023-05-09T21:20:56.961Z,87.21
2023-05-09T21:23:23.430Z,87.51
2023-05-09T21:25:49.930Z,87.55
2023-05-09T21:28:17.322Z,87.21
2023-05-09T21:30:43.847Z,86.75
2023-05-09T21:33:10.714Z,87.04
2023-05-09T21:35:37.251Z,86.84
2023-05-09T21:38:03.692Z,86.90
2023-05-09T21:40:30.289Z,87.30
2023-05-09T21:42:56.767Z,87.00
2023-05-09T21:45:23.365Z,87.49
2023-05-09T21:47:49.969Z,87.60
2023-05-09T21:50:16.799Z,87.45
2023-05-09T21:52:43.738Z,87.02
2023-05-09T21:55:10.490Z,86.97
2023-05-09T21:57:36.941Z,87.60
2023-05-09T22:00:05.493Z,87.49
2023-05-09T22:02:32.500Z,87.18
2023-05-09T22:04:59.071Z,87.51
2023-05-09T22:07:25.646Z,87.88
2023-05-09T22:09:52.902Z,87.69
2023-05-09T22:12:19.730Z,88.36
2023-05-09T22:14:55.788Z,88.48
2023-05-09T22:17:23.972Z,88.84
2023-05-09T22:19:50.496Z,88.64
2023-05-09T22:22:16.952Z,88.66
2023-05-09T22:24:43.656Z,89.09
2023-05-09T22:27:10.645Z,89.20
2023-05-09T22:29:37.140Z,89.10
2023-05-09T22:32:03.916Z,88.63
2023-05-09T22:34:31.031Z,88.65
2023-05-09T22:36:57.516Z,88.97
2023-05-09T22:39:24.108Z,88.68
2023-05-09T22:41:50.652Z,88.77
2023-05-09T22:44:17.187Z,88.59
2023-05-09T22:46:43.728Z,88.26
2023-05-09T22:52:57.533Z,88.34
2023-05-09T22:55:24.087Z,89.04
2023-05-09T22:57:50.614Z,89.16
2023-05-09T23:00:18.329Z,89.30
2023-05-09T23:02:45.488Z,88.70
2023-05-09T23:05:12.177Z,88.45
2023-05-09T23:07:38.707Z,88.93
2023-05-09T23:10:05.895Z,88.36
2023-05-09T23:12:32.412Z,88.39
2023-05-09T23:14:58.913Z,88.32
2023-05-09T23:17:25.554Z,87.94
2023-05-09T23:19:52.154Z,88.04
2023-05-09T23:22:18.752Z,88.00
2023-05-09T23:24:45.308Z,88.12
2023-05-09T23:27:11.849Z,88.20
2023-05-09T23:29:38.362Z,87.64
2023-05-09T23:32:05.154Z,88.00
2023-05-09T23:34:31.766Z,87.66
2023-05-09T23:36:58.323Z,87.76
2023-05-09T23:39:24.854Z,87.51
2023-05-09T23:41:51.387Z,87.80
2023-05-09T23:44:17.918Z,87.99
2023-05-09T23:46:44.479Z,87.40
2023-05-09T23:49:13.235Z,87.73
2023-05-09T23:51:39.926Z,87.11
2023-05-09T23:54:07.420Z,87.64
2023-05-09T23:56:33.955Z,87.33
2023-05-09T23:59:00.447Z,88.10
